CSAV Lonquen — A8OT2 — position and weather

sailwx.info

Track history (hours):
 
Tides and Currents Weather Stations Pressure Air Temp Water Temp Dewpoint Dewpoint Depression Visibility Wind Speed Wind Dir Waves Ship Positions

CSAV Lonquen

Last reported at 2015-Jan-28 08:33 UTC. Time now 2015-Jan-28 12:10 UTC.
Position N 40°32' E 014°42'.

Length 261 m; draft 9.2 m.

Type: Ship (hazmat cat A). MMSI: 636091501.

Date/timePositionNaut miles runAvg speedWind from/ knotsBaromVisibWave heightAir tempDewpointWater temp
2015-Jan-28 08:33N 40°32' E 014°42'1010.0
2015-Jan-28 07:33N 40°22' E 014°42'1311.3
2015-Jan-28 06:26N 40°09' E 014°45'  
2015-Jan-25 15:24N 32°24' E 032°46'3518.3
2015-Jan-25 13:30N 32°14' E 033°26'1718.1
2015-Jan-25 12:33N 32°09' E 033°45'49 4.4
2015-Jan-25 01:23N 31°50' E 034°39'0 0.0
2015-Jan-24 23:33N 31°50' E 034°39'0 0.0
2015-Jan-24 22:14N 31°50' E 034°39'0 0.0
2015-Jan-22 20:31N 31°50' E 034°39'0 0.0
2015-Jan-22 19:31N 31°50' E 034°39'0 0.0
2015-Jan-22 18:25N 31°50' E 034°39'0 0.0
2015-Jan-22 16:31N 31°50' E 034°39'0 0.0
2015-Jan-22 15:31N 31°50' E 034°39'1 0.6
2015-Jan-22 13:33N 31°51' E 034°38'3 2.0
2015-Jan-22 12:04N 31°50' E 034°35'0 0.0
2015-Jan-22 11:28N 31°50' E 034°35'5 0.7
2015-Jan-22 03:12N 31°53' E 034°29'1422.0
2015-Jan-22 02:33N 31°59' E 034°14'2323.3
2015-Jan-22 01:33N 32°07' E 033°48'2323.1
2015-Jan-22 00:33N 32°06' E 033°21'2423.4
2015-Jan-21 23:33N 32°05' E 032°53'2224.2
2015-Jan-21 22:37N 32°03' E 032°27'146 8.4
2015-Jan-21 05:08N 31°09' E 029°47'0 0.0
2015-Jan-21 04:29N 31°09' E 029°47'0 0.0
2015-Jan-21 02:32N 31°09' E 029°47'0 0.0
2015-Jan-21 01:23N 31°09' E 029°47'0 0.0
2015-Jan-21 00:29N 31°09' E 029°47'  
Track history (hours):
 
Tides and Currents Weather Stations Pressure Air Temp Water Temp Dewpoint Dewpoint Depression Visibility Wind Speed Wind Dir Waves Ship Positions

CSAV Lonquen

Last reported at 2015-Jan-28 08:33 UTC. Time now 2015-Jan-28 12:10 UTC.
Position N 40°32' E 014°42'.

Length 261 m; draft 9.2 m.

Type: Ship (hazmat cat A). MMSI: 636091501.

Date/timePositionNaut miles runAvg speedWind from/ knotsBaromVisibWave heightAir tempDewpointWater temp
2015-Jan-28 08:33N 40°32' E 014°42'1010.0
2015-Jan-28 07:33N 40°22' E 014°42'1311.3
2015-Jan-28 06:26N 40°09' E 014°45'  
2015-Jan-25 15:24N 32°24' E 032°46'3518.3
2015-Jan-25 13:30N 32°14' E 033°26'1718.1
2015-Jan-25 12:33N 32°09' E 033°45'49 4.4
2015-Jan-25 01:23N 31°50' E 034°39'0 0.0
2015-Jan-24 23:33N 31°50' E 034°39'0 0.0
2015-Jan-24 22:14N 31°50' E 034°39'0 0.0
2015-Jan-22 20:31N 31°50' E 034°39'0 0.0
2015-Jan-22 19:31N 31°50' E 034°39'0 0.0
2015-Jan-22 18:25N 31°50' E 034°39'0 0.0
2015-Jan-22 16:31N 31°50' E 034°39'0 0.0
2015-Jan-22 15:31N 31°50' E 034°39'1 0.6
2015-Jan-22 13:33N 31°51' E 034°38'3 2.0
2015-Jan-22 12:04N 31°50' E 034°35'0 0.0
2015-Jan-22 11:28N 31°50' E 034°35'5 0.7
2015-Jan-22 03:12N 31°53' E 034°29'1422.0
2015-Jan-22 02:33N 31°59' E 034°14'2323.3
2015-Jan-22 01:33N 32°07' E 033°48'2323.1
2015-Jan-22 00:33N 32°06' E 033°21'2423.4
2015-Jan-21 23:33N 32°05' E 032°53'2224.2
2015-Jan-21 22:37N 32°03' E 032°27'146 8.4
2015-Jan-21 05:08N 31°09' E 029°47'0 0.0
2015-Jan-21 04:29N 31°09' E 029°47'0 0.0
2015-Jan-21 02:32N 31°09' E 029°47'0 0.0
2015-Jan-21 01:23N 31°09' E 029°47'0 0.0
2015-Jan-21 00:29N 31°09' E 029°47'  

Dump ship's entire track history